sensor_id;sensor_type;location;lat;lon;timestamp;P1;durP1;ratioP1;P2;durP2;ratioP2
16640;SDS011;8434;47.990;7.880;2023-04-25T00:00:21;3.37;;;2.30;;
16640;SDS011;8434;47.990;7.880;2023-04-25T00:03:07;7.30;;;2.77;;
16640;SDS011;8434;47.990;7.880;2023-04-25T00:05:53;6.23;;;2.30;;
16640;SDS011;8434;47.990;7.880;2023-04-25T00:08:40;4.73;;;2.10;;
16640;SDS011;8434;47.990;7.880;2023-04-25T00:11:27;4.07;;;1.93;;
16640;SDS011;8434;47.990;7.880;2023-04-25T00:14:14;3.47;;;2.00;;
16640;SDS011;8434;47.990;7.880;2023-04-25T00:17:00;3.60;;;1.93;;
16640;SDS011;8434;47.990;7.880;2023-04-25T00:19:46;4.17;;;2.23;;
16640;SDS011;8434;47.990;7.880;2023-04-25T00:22:32;3.13;;;2.10;;
16640;SDS011;8434;47.990;7.880;2023-04-25T00:25:18;4.10;;;2.33;;
16640;SDS011;8434;47.990;7.880;2023-04-25T00:28:05;2.47;;;2.03;;
16640;SDS011;8434;47.990;7.880;2023-04-25T00:30:50;4.37;;;2.27;;
16640;SDS011;8434;47.990;7.880;2023-04-25T00:33:36;4.03;;;2.30;;
16640;SDS011;8434;47.990;7.880;2023-04-25T00:36:21;3.60;;;2.30;;
16640;SDS011;8434;47.990;7.880;2023-04-25T00:39:06;3.23;;;2.00;;
16640;SDS011;8434;47.990;7.880;2023-04-25T00:41:52;5.40;;;2.60;;
16640;SDS011;8434;47.990;7.880;2023-04-25T00:44:40;8.40;;;2.60;;
16640;SDS011;8434;47.990;7.880;2023-04-25T00:47:26;3.53;;;2.37;;
16640;SDS011;8434;47.990;7.880;2023-04-25T00:50:11;3.20;;;2.13;;
16640;SDS011;8434;47.990;7.880;2023-04-25T00:52:56;3.80;;;2.60;;
16640;SDS011;8434;47.990;7.880;2023-04-25T00:55:42;4.63;;;2.60;;
16640;SDS011;8434;47.990;7.880;2023-04-25T00:58:27;5.23;;;2.37;;
16640;SDS011;8434;47.990;7.880;2023-04-25T01:01:14;5.07;;;2.30;;
16640;SDS011;8434;47.990;7.880;2023-04-25T01:04:00;3.33;;;2.17;;
16640;SDS011;8434;47.990;7.880;2023-04-25T01:06:46;5.70;;;2.93;;
16640;SDS011;8434;47.990;7.880;2023-04-25T01:09:31;3.53;;;2.13;;
16640;SDS011;8434;47.990;7.880;2023-04-25T01:12:16;3.77;;;2.33;;
16640;SDS011;8434;47.990;7.880;2023-04-25T01:15:02;5.80;;;2.40;;
16640;SDS011;8434;47.990;7.880;2023-04-25T01:17:49;2.90;;;2.60;;
16640;SDS011;8434;47.990;7.880;2023-04-25T01:20:34;3.70;;;2.50;;
16640;SDS011;8434;47.990;7.880;2023-04-25T01:23:22;6.20;;;2.70;;
16640;SDS011;8434;47.990;7.880;2023-04-25T01:26:09;3.17;;;2.13;;
16640;SDS011;8434;47.990;7.880;2023-04-25T01:28:54;5.03;;;3.03;;
16640;SDS011;8434;47.990;7.880;2023-04-25T01:31:40;6.17;;;2.53;;
16640;SDS011;8434;47.990;7.880;2023-04-25T01:34:25;5.40;;;2.50;;
16640;SDS011;8434;47.990;7.880;2023-04-25T01:37:11;7.20;;;3.30;;
16640;SDS011;8434;47.990;7.880;2023-04-25T01:39:57;3.27;;;2.73;;
16640;SDS011;8434;47.990;7.880;2023-04-25T01:42:43;4.43;;;2.50;;
16640;SDS011;8434;47.990;7.880;2023-04-25T01:45:29;5.50;;;2.57;;
16640;SDS011;8434;47.990;7.880;2023-04-25T01:48:14;5.60;;;2.83;;
16640;SDS011;8434;47.990;7.880;2023-04-25T01:51:01;7.63;;;2.60;;
16640;SDS011;8434;47.990;7.880;2023-04-25T01:53:47;3.50;;;2.30;;
16640;SDS011;8434;47.990;7.880;2023-04-25T01:56:36;3.87;;;2.57;;
16640;SDS011;8434;47.990;7.880;2023-04-25T01:59:21;5.97;;;2.63;;
16640;SDS011;8434;47.990;7.880;2023-04-25T02:02:30;5.73;;;2.40;;
16640;SDS011;8434;47.990;7.880;2023-04-25T02:05:15;6.47;;;2.40;;
16640;SDS011;8434;47.990;7.880;2023-04-25T02:08:01;4.37;;;2.70;;
16640;SDS011;8434;47.990;7.880;2023-04-25T02:10:47;4.67;;;2.60;;
16640;SDS011;8434;47.990;7.880;2023-04-25T02:13:37;4.47;;;2.53;;
16640;SDS011;8434;47.990;7.880;2023-04-25T02:16:34;5.53;;;2.93;;
16640;SDS011;8434;47.990;7.880;2023-04-25T02:19:21;4.27;;;2.20;;
16640;SDS011;8434;47.990;7.880;2023-04-25T02:22:06;5.77;;;2.63;;
16640;SDS011;8434;47.990;7.880;2023-04-25T02:24:52;7.53;;;2.50;;
16640;SDS011;8434;47.990;7.880;2023-04-25T02:27:38;5.10;;;2.23;;
16640;SDS011;8434;47.990;7.880;2023-04-25T02:30:26;3.83;;;2.07;;
16640;SDS011;8434;47.990;7.880;2023-04-25T02:33:11;3.60;;;2.07;;
16640;SDS011;8434;47.990;7.880;2023-04-25T02:35:57;2.60;;;1.90;;
16640;SDS011;8434;47.990;7.880;2023-04-25T02:38:42;5.97;;;2.77;;
16640;SDS011;8434;47.990;7.880;2023-04-25T02:41:28;4.57;;;2.23;;
16640;SDS011;8434;47.990;7.880;2023-04-25T02:44:14;7.20;;;2.37;;
16640;SDS011;8434;47.990;7.880;2023-04-25T02:47:00;3.50;;;2.20;;
16640;SDS011;8434;47.990;7.880;2023-04-25T02:49:45;3.93;;;2.17;;
16640;SDS011;8434;47.990;7.880;2023-04-25T02:52:31;4.07;;;1.97;;
16640;SDS011;8434;47.990;7.880;2023-04-25T02:55:25;6.40;;;2.13;;
16640;SDS011;8434;47.990;7.880;2023-04-25T02:58:11;3.53;;;2.30;;
16640;SDS011;8434;47.990;7.880;2023-04-25T03:01:08;5.10;;;2.17;;
16640;SDS011;8434;47.990;7.880;2023-04-25T03:03:55;4.57;;;2.13;;
16640;SDS011;8434;47.990;7.880;2023-04-25T03:06:40;4.13;;;2.90;;
16640;SDS011;8434;47.990;7.880;2023-04-25T03:09:26;4.33;;;1.90;;
16640;SDS011;8434;47.990;7.880;2023-04-25T03:12:11;4.33;;;1.93;;
16640;SDS011;8434;47.990;7.880;2023-04-25T03:14:56;4.37;;;2.00;;
16640;SDS011;8434;47.990;7.880;2023-04-25T03:17:42;4.80;;;2.00;;
16640;SDS011;8434;47.990;7.880;2023-04-25T03:20:29;5.80;;;2.33;;
16640;SDS011;8434;47.990;7.880;2023-04-25T03:23:14;5.90;;;2.47;;
16640;SDS011;8434;47.990;7.880;2023-04-25T03:26:00;6.13;;;2.20;;
16640;SDS011;8434;47.990;7.880;2023-04-25T03:28:46;6.47;;;2.10;;
16640;SDS011;8434;47.990;7.880;2023-04-25T03:31:31;6.13;;;2.30;;
16640;SDS011;8434;47.990;7.880;2023-04-25T03:34:17;8.43;;;2.50;;
16640;SDS011;8434;47.990;7.880;2023-04-25T03:37:04;4.07;;;2.03;;
16640;SDS011;8434;47.990;7.880;2023-04-25T03:39:54;3.87;;;2.10;;
16640;SDS011;8434;47.990;7.880;2023-04-25T03:42:41;3.97;;;2.40;;
16640;SDS011;8434;47.990;7.880;2023-04-25T03:45:27;5.03;;;2.00;;
16640;SDS011;8434;47.990;7.880;2023-04-25T03:48:13;3.33;;;1.97;;
16640;SDS011;8434;47.990;7.880;2023-04-25T03:50:58;4.53;;;2.53;;
16640;SDS011;8434;47.990;7.880;2023-04-25T03:53:45;6.83;;;2.40;;
16640;SDS011;8434;47.990;7.880;2023-04-25T03:57:00;5.10;;;2.67;;
16640;SDS011;8434;47.990;7.880;2023-04-25T03:59:47;4.73;;;2.70;;
16640;SDS011;8434;47.990;7.880;2023-04-25T04:02:33;4.73;;;2.40;;
16640;SDS011;8434;47.990;7.880;2023-04-25T04:05:20;4.37;;;2.77;;
16640;SDS011;8434;47.990;7.880;2023-04-25T04:08:11;7.53;;;3.10;;
16640;SDS011;8434;47.990;7.880;2023-04-25T04:10:59;4.37;;;2.60;;
16640;SDS011;8434;47.990;7.880;2023-04-25T04:13:45;7.93;;;2.63;;
16640;SDS011;8434;47.990;7.880;2023-04-25T04:16:30;7.30;;;2.63;;
16640;SDS011;8434;47.990;7.880;2023-04-25T04:19:16;4.10;;;2.47;;
16640;SDS011;8434;47.990;7.880;2023-04-25T04:22:08;5.23;;;2.63;;
16640;SDS011;8434;47.990;7.880;2023-04-25T04:24:58;4.13;;;2.47;;
16640;SDS011;8434;47.990;7.880;2023-04-25T04:28:07;5.97;;;2.60;;
16640;SDS011;8434;47.990;7.880;2023-04-25T04:30:58;5.27;;;2.50;;
16640;SDS011;8434;47.990;7.880;2023-04-25T04:33:45;5.40;;;3.37;;
16640;SDS011;8434;47.990;7.880;2023-04-25T04:36:31;6.07;;;2.80;;
16640;SDS011;8434;47.990;7.880;2023-04-25T04:39:16;3.30;;;2.63;;
16640;SDS011;8434;47.990;7.880;2023-04-25T04:42:18;4.20;;;2.60;;
16640;SDS011;8434;47.990;7.880;2023-04-25T04:45:20;5.37;;;2.43;;
16640;SDS011;8434;47.990;7.880;2023-04-25T04:48:26;5.57;;;2.83;;
16640;SDS011;8434;47.990;7.880;2023-04-25T04:51:27;4.80;;;2.33;;
16640;SDS011;8434;47.990;7.880;2023-04-25T04:54:12;5.33;;;3.60;;
16640;SDS011;8434;47.990;7.880;2023-04-25T04:57:18;15.23;;;4.20;;
16640;SDS011;8434;47.990;7.880;2023-04-25T05:00:32;4.40;;;2.43;;
16640;SDS011;8434;47.990;7.880;2023-04-25T05:03:36;7.30;;;3.07;;
16640;SDS011;8434;47.990;7.880;2023-04-25T05:06:44;4.57;;;2.43;;
16640;SDS011;8434;47.990;7.880;2023-04-25T05:09:59;4.10;;;2.53;;
16640;SDS011;8434;47.990;7.880;2023-04-25T05:13:08;7.97;;;2.97;;
16640;SDS011;8434;47.990;7.880;2023-04-25T05:16:13;5.50;;;2.63;;
16640;SDS011;8434;47.990;7.880;2023-04-25T05:19:13;4.83;;;2.77;;
16640;SDS011;8434;47.990;7.880;2023-04-25T05:22:09;7.83;;;3.30;;
16640;SDS011;8434;47.990;7.880;2023-04-25T05:25:36;4.87;;;2.83;;
16640;SDS011;8434;47.990;7.880;2023-04-25T05:28:31;4.70;;;2.60;;
16640;SDS011;8434;47.990;7.880;2023-04-25T05:31:41;9.77;;;3.30;;
16640;SDS011;8434;47.990;7.880;2023-04-25T05:34:29;6.80;;;2.87;;
16640;SDS011;8434;47.990;7.880;2023-04-25T05:37:18;3.60;;;2.40;;
16640;SDS011;8434;47.990;7.880;2023-04-25T05:40:12;3.83;;;1.60;;
16640;SDS011;8434;47.990;7.880;2023-04-25T05:43:16;3.93;;;1.80;;
16640;SDS011;8434;47.990;7.880;2023-04-25T05:46:30;3.23;;;1.40;;
16640;SDS011;8434;47.990;7.880;2023-04-25T05:49:36;1.77;;;1.03;;
16640;SDS011;8434;47.990;7.880;2023-04-25T05:52:41;2.60;;;1.20;;
16640;SDS011;8434;47.990;7.880;2023-04-25T05:55:59;5.03;;;1.70;;
16640;SDS011;8434;47.990;7.880;2023-04-25T05:58:45;1.80;;;1.50;;
16640;SDS011;8434;47.990;7.880;2023-04-25T06:01:31;3.87;;;1.57;;
16640;SDS011;8434;47.990;7.880;2023-04-25T06:04:16;2.60;;;1.60;;
16640;SDS011;8434;47.990;7.880;2023-04-25T06:07:03;2.40;;;1.27;;
16640;SDS011;8434;47.990;7.880;2023-04-25T06:09:49;2.70;;;1.50;;
16640;SDS011;8434;47.990;7.880;2023-04-25T06:12:35;3.33;;;1.23;;
16640;SDS011;8434;47.990;7.880;2023-04-25T06:15:22;1.47;;;1.10;;
16640;SDS011;8434;47.990;7.880;2023-04-25T06:18:07;2.63;;;1.87;;
16640;SDS011;8434;47.990;7.880;2023-04-25T06:20:53;3.10;;;1.70;;
16640;SDS011;8434;47.990;7.880;2023-04-25T06:23:41;4.60;;;2.00;;
16640;SDS011;8434;47.990;7.880;2023-04-25T06:26:28;2.03;;;1.60;;
16640;SDS011;8434;47.990;7.880;2023-04-25T06:29:14;1.50;;;1.20;;
16640;SDS011;8434;47.990;7.880;2023-04-25T06:32:00;3.00;;;1.20;;
16640;SDS011;8434;47.990;7.880;2023-04-25T06:34:45;2.77;;;1.20;;
16640;SDS011;8434;47.990;7.880;2023-04-25T06:37:31;1.87;;;0.70;;
16640;SDS011;8434;47.990;7.880;2023-04-25T06:40:17;2.63;;;0.83;;
16640;SDS011;8434;47.990;7.880;2023-04-25T06:43:03;0.90;;;0.80;;
16640;SDS011;8434;47.990;7.880;2023-04-25T06:46:03;1.23;;;0.97;;
16640;SDS011;8434;47.990;7.880;2023-04-25T06:48:51;1.53;;;1.00;;
16640;SDS011;8434;47.990;7.880;2023-04-25T06:51:37;1.10;;;0.90;;
16640;SDS011;8434;47.990;7.880;2023-04-25T06:54:23;2.47;;;1.00;;
16640;SDS011;8434;47.990;7.880;2023-04-25T06:57:20;1.10;;;0.80;;
16640;SDS011;8434;47.990;7.880;2023-04-25T07:00:06;1.30;;;0.90;;
16640;SDS011;8434;47.990;7.880;2023-04-25T07:02:54;2.07;;;1.03;;
16640;SDS011;8434;47.990;7.880;2023-04-25T07:05:40;1.60;;;1.20;;
16640;SDS011;8434;47.990;7.880;2023-04-25T07:08:25;2.10;;;1.20;;
16640;SDS011;8434;47.990;7.880;2023-04-25T07:11:11;1.50;;;1.17;;
16640;SDS011;8434;47.990;7.880;2023-04-25T07:13:59;2.50;;;1.20;;
16640;SDS011;8434;47.990;7.880;2023-04-25T07:16:44;2.17;;;1.57;;
16640;SDS011;8434;47.990;7.880;2023-04-25T07:19:30;1.70;;;1.50;;
16640;SDS011;8434;47.990;7.880;2023-04-25T07:22:19;2.10;;;1.60;;
16640;SDS011;8434;47.990;7.880;2023-04-25T07:25:04;2.20;;;1.40;;
16640;SDS011;8434;47.990;7.880;2023-04-25T07:27:50;1.73;;;1.57;;
16640;SDS011;8434;47.990;7.880;2023-04-25T07:30:38;3.03;;;1.50;;
16640;SDS011;8434;47.990;7.880;2023-04-25T07:33:24;3.60;;;1.80;;
16640;SDS011;8434;47.990;7.880;2023-04-25T07:36:09;2.20;;;1.80;;
16640;SDS011;8434;47.990;7.880;2023-04-25T07:38:55;5.30;;;2.27;;
16640;SDS011;8434;47.990;7.880;2023-04-25T07:41:40;2.37;;;1.70;;
16640;SDS011;8434;47.990;7.880;2023-04-25T07:44:30;3.43;;;2.80;;
16640;SDS011;8434;47.990;7.880;2023-04-25T07:47:18;2.63;;;2.20;;
16640;SDS011;8434;47.990;7.880;2023-04-25T07:50:04;4.10;;;2.50;;
16640;SDS011;8434;47.990;7.880;2023-04-25T07:52:50;2.70;;;2.13;;
16640;SDS011;8434;47.990;7.880;2023-04-25T07:55:44;4.57;;;2.47;;
16640;SDS011;8434;47.990;7.880;2023-04-25T07:58:33;2.90;;;2.27;;
16640;SDS011;8434;47.990;7.880;2023-04-25T08:01:21;3.87;;;2.57;;
16640;SDS011;8434;47.990;7.880;2023-04-25T08:04:16;3.27;;;2.30;;
16640;SDS011;8434;47.990;7.880;2023-04-25T08:07:15;3.13;;;2.37;;
16640;SDS011;8434;47.990;7.880;2023-04-25T08:10:08;2.93;;;2.20;;
16640;SDS011;8434;47.990;7.880;2023-04-25T08:12:53;3.07;;;1.67;;
16640;SDS011;8434;47.990;7.880;2023-04-25T08:18:36;2.90;;;2.40;;
16640;SDS011;8434;47.990;7.880;2023-04-25T08:21:23;3.67;;;2.30;;
16640;SDS011;8434;47.990;7.880;2023-04-25T08:24:11;4.53;;;2.50;;
16640;SDS011;8434;47.990;7.880;2023-04-25T08:26:58;3.53;;;2.50;;
16640;SDS011;8434;47.990;7.880;2023-04-25T08:29:46;3.00;;;2.60;;
16640;SDS011;8434;47.990;7.880;2023-04-25T08:32:32;3.30;;;2.87;;
16640;SDS011;8434;47.990;7.880;2023-04-25T08:35:34;4.53;;;2.10;;
16640;SDS011;8434;47.990;7.880;2023-04-25T08:38:21;3.53;;;2.40;;
16640;SDS011;8434;47.990;7.880;2023-04-25T08:41:07;5.67;;;2.80;;
16640;SDS011;8434;47.990;7.880;2023-04-25T08:43:52;5.77;;;3.07;;
16640;SDS011;8434;47.990;7.880;2023-04-25T08:46:38;6.30;;;3.80;;
16640;SDS011;8434;47.990;7.880;2023-04-25T08:49:35;7.97;;;3.80;;
16640;SDS011;8434;47.990;7.880;2023-04-25T08:52:21;3.63;;;2.57;;
16640;SDS011;8434;47.990;7.880;2023-04-25T08:55:08;3.47;;;2.90;;
16640;SDS011;8434;47.990;7.880;2023-04-25T08:57:55;5.07;;;2.40;;
16640;SDS011;8434;47.990;7.880;2023-04-25T09:00:41;4.23;;;2.60;;
16640;SDS011;8434;47.990;7.880;2023-04-25T09:03:26;2.50;;;2.13;;
16640;SDS011;8434;47.990;7.880;2023-04-25T09:06:12;3.53;;;2.27;;
16640;SDS011;8434;47.990;7.880;2023-04-25T09:09:00;2.83;;;2.53;;
16640;SDS011;8434;47.990;7.880;2023-04-25T09:11:48;2.57;;;2.10;;
16640;SDS011;8434;47.990;7.880;2023-04-25T09:14:33;4.83;;;2.00;;
16640;SDS011;8434;47.990;7.880;2023-04-25T09:17:27;3.43;;;2.30;;
16640;SDS011;8434;47.990;7.880;2023-04-25T09:20:14;3.63;;;2.50;;
16640;SDS011;8434;47.990;7.880;2023-04-25T09:23:00;3.27;;;2.40;;
16640;SDS011;8434;47.990;7.880;2023-04-25T09:25:49;2.90;;;2.33;;
16640;SDS011;8434;47.990;7.880;2023-04-25T09:28:36;2.80;;;2.30;;
16640;SDS011;8434;47.990;7.880;2023-04-25T09:31:22;4.23;;;2.03;;
16640;SDS011;8434;47.990;7.880;2023-04-25T09:34:09;2.60;;;2.07;;
16640;SDS011;8434;47.990;7.880;2023-04-25T09:37:02;2.60;;;2.07;;
16640;SDS011;8434;47.990;7.880;2023-04-25T09:40:26;2.40;;;2.20;;
16640;SDS011;8434;47.990;7.880;2023-04-25T09:43:25;2.30;;;2.10;;
16640;SDS011;8434;47.990;7.880;2023-04-25T09:46:13;3.97;;;2.33;;
16640;SDS011;8434;47.990;7.880;2023-04-25T09:49:06;3.50;;;2.00;;
16640;SDS011;8434;47.990;7.880;2023-04-25T09:51:59;2.93;;;2.10;;
16640;SDS011;8434;47.990;7.880;2023-04-25T09:54:50;2.70;;;1.80;;
16640;SDS011;8434;47.990;7.880;2023-04-25T09:57:43;3.10;;;2.23;;
16640;SDS011;8434;47.990;7.880;2023-04-25T10:00:30;2.03;;;1.63;;
16640;SDS011;8434;47.990;7.880;2023-04-25T10:03:26;3.27;;;2.30;;
16640;SDS011;8434;47.990;7.880;2023-04-25T10:06:41;3.17;;;1.57;;
16640;SDS011;8434;47.990;7.880;2023-04-25T10:09:28;2.10;;;1.50;;
16640;SDS011;8434;47.990;7.880;2023-04-25T10:12:16;3.17;;;1.97;;
16640;SDS011;8434;47.990;7.880;2023-04-25T10:15:02;2.17;;;1.60;;
16640;SDS011;8434;47.990;7.880;2023-04-25T10:17:48;1.47;;;1.30;;
16640;SDS011;8434;47.990;7.880;2023-04-25T10:20:35;1.60;;;1.50;;
16640;SDS011;8434;47.990;7.880;2023-04-25T10:23:21;1.43;;;1.33;;
16640;SDS011;8434;47.990;7.880;2023-04-25T10:26:06;2.50;;;1.40;;
16640;SDS011;8434;47.990;7.880;2023-04-25T10:28:57;1.27;;;1.17;;
16640;SDS011;8434;47.990;7.880;2023-04-25T10:31:45;1.97;;;1.40;;
16640;SDS011;8434;47.990;7.880;2023-04-25T10:34:38;2.27;;;1.50;;
16640;SDS011;8434;47.990;7.880;2023-04-25T10:37:26;2.07;;;1.50;;
16640;SDS011;8434;47.990;7.880;2023-04-25T10:40:11;2.53;;;1.43;;
16640;SDS011;8434;47.990;7.880;2023-04-25T10:43:33;2.30;;;1.83;;
16640;SDS011;8434;47.990;7.880;2023-04-25T10:46:15;1.83;;;1.63;;
16640;SDS011;8434;47.990;7.880;2023-04-25T10:49:01;2.40;;;1.60;;
16640;SDS011;8434;47.990;7.880;2023-04-25T10:51:46;2.00;;;1.70;;
16640;SDS011;8434;47.990;7.880;2023-04-25T10:54:33;1.63;;;1.53;;
16640;SDS011;8434;47.990;7.880;2023-04-25T10:57:28;2.30;;;2.00;;
16640;SDS011;8434;47.990;7.880;2023-04-25T11:00:15;1.93;;;1.70;;
16640;SDS011;8434;47.990;7.880;2023-04-25T11:03:01;2.47;;;1.97;;
16640;SDS011;8434;47.990;7.880;2023-04-25T11:05:47;2.70;;;2.30;;
16640;SDS011;8434;47.990;7.880;2023-04-25T11:08:36;3.37;;;2.47;;
16640;SDS011;8434;47.990;7.880;2023-04-25T11:11:24;3.53;;;1.60;;
16640;SDS011;8434;47.990;7.880;2023-04-25T11:14:10;2.60;;;2.33;;
16640;SDS011;8434;47.990;7.880;2023-04-25T11:16:56;2.10;;;1.90;;
16640;SDS011;8434;47.990;7.880;2023-04-25T11:19:41;3.17;;;1.80;;
16640;SDS011;8434;47.990;7.880;2023-04-25T11:22:27;1.70;;;1.57;;
16640;SDS011;8434;47.990;7.880;2023-04-25T11:25:14;2.13;;;1.70;;
16640;SDS011;8434;47.990;7.880;2023-04-25T11:28:02;3.47;;;1.80;;
16640;SDS011;8434;47.990;7.880;2023-04-25T11:30:48;1.73;;;1.63;;
16640;SDS011;8434;47.990;7.880;2023-04-25T11:33:34;1.90;;;1.70;;
16640;SDS011;8434;47.990;7.880;2023-04-25T11:36:19;3.60;;;1.80;;
16640;SDS011;8434;47.990;7.880;2023-04-25T11:39:16;2.60;;;1.60;;
16640;SDS011;8434;47.990;7.880;2023-04-25T11:42:03;3.50;;;2.23;;
16640;SDS011;8434;47.990;7.880;2023-04-25T11:44:51;3.47;;;1.70;;
16640;SDS011;8434;47.990;7.880;2023-04-25T11:47:37;1.67;;;1.43;;
16640;SDS011;8434;47.990;7.880;2023-04-25T11:50:22;2.07;;;1.70;;
16640;SDS011;8434;47.990;7.880;2023-04-25T11:53:07;4.13;;;1.60;;
16640;SDS011;8434;47.990;7.880;2023-04-25T11:55:54;2.23;;;2.03;;
16640;SDS011;8434;47.990;7.880;2023-04-25T11:58:56;3.07;;;2.10;;
16640;SDS011;8434;47.990;7.880;2023-04-25T12:01:47;2.63;;;1.77;;
16640;SDS011;8434;47.990;7.880;2023-04-25T12:04:33;3.10;;;2.43;;
16640;SDS011;8434;47.990;7.880;2023-04-25T12:07:18;4.53;;;2.70;;
16640;SDS011;8434;47.990;7.880;2023-04-25T12:10:07;3.70;;;2.60;;
16640;SDS011;8434;47.990;7.880;2023-04-25T12:12:52;4.00;;;2.43;;
16640;SDS011;8434;47.990;7.880;2023-04-25T12:15:40;3.00;;;2.17;;
16640;SDS011;8434;47.990;7.880;2023-04-25T12:18:29;2.70;;;2.20;;
16640;SDS011;8434;47.990;7.880;2023-04-25T12:21:15;2.27;;;2.07;;
16640;SDS011;8434;47.990;7.880;2023-04-25T12:24:09;3.83;;;3.07;;
16640;SDS011;8434;47.990;7.880;2023-04-25T12:26:58;2.83;;;2.43;;
16640;SDS011;8434;47.990;7.880;2023-04-25T12:29:49;1.87;;;1.73;;
16640;SDS011;8434;47.990;7.880;2023-04-25T12:32:35;1.67;;;1.57;;
16640;SDS011;8434;47.990;7.880;2023-04-25T12:35:23;2.20;;;1.70;;
16640;SDS011;8434;47.990;7.880;2023-04-25T12:38:08;1.60;;;1.50;;
16640;SDS011;8434;47.990;7.880;2023-04-25T12:40:54;2.83;;;2.23;;
16640;SDS011;8434;47.990;7.880;2023-04-25T12:43:39;1.30;;;1.20;;
16640;SDS011;8434;47.990;7.880;2023-04-25T12:46:25;2.37;;;1.33;;
16640;SDS011;8434;47.990;7.880;2023-04-25T12:49:10;1.80;;;1.60;;
16640;SDS011;8434;47.990;7.880;2023-04-25T12:51:57;1.50;;;1.40;;
16640;SDS011;8434;47.990;7.880;2023-04-25T12:54:42;1.60;;;1.50;;
16640;SDS011;8434;47.990;7.880;2023-04-25T12:57:27;2.80;;;1.87;;
16640;SDS011;8434;47.990;7.880;2023-04-25T13:00:13;1.73;;;1.50;;
16640;SDS011;8434;47.990;7.880;2023-04-25T13:02:58;1.53;;;1.43;;
16640;SDS011;8434;47.990;7.880;2023-04-25T13:05:44;2.67;;;1.50;;
16640;SDS011;8434;47.990;7.880;2023-04-25T13:08:31;2.10;;;1.50;;
16640;SDS011;8434;47.990;7.880;2023-04-25T13:11:16;1.37;;;1.27;;
16640;SDS011;8434;47.990;7.880;2023-04-25T13:14:02;1.97;;;1.27;;
16640;SDS011;8434;47.990;7.880;2023-04-25T13:16:47;2.80;;;1.30;;
16640;SDS011;8434;47.990;7.880;2023-04-25T13:19:33;2.03;;;1.30;;
16640;SDS011;8434;47.990;7.880;2023-04-25T13:22:18;1.77;;;1.23;;
16640;SDS011;8434;47.990;7.880;2023-04-25T13:25:06;1.33;;;1.20;;
16640;SDS011;8434;47.990;7.880;2023-04-25T13:27:51;2.20;;;1.70;;
16640;SDS011;8434;47.990;7.880;2023-04-25T13:30:37;2.43;;;1.13;;
16640;SDS011;8434;47.990;7.880;2023-04-25T13:33:22;1.20;;;1.10;;
16640;SDS011;8434;47.990;7.880;2023-04-25T13:36:08;1.13;;;1.03;;
16640;SDS011;8434;47.990;7.880;2023-04-25T13:38:53;1.63;;;0.90;;
16640;SDS011;8434;47.990;7.880;2023-04-25T13:41:40;1.00;;;0.90;;
16640;SDS011;8434;47.990;7.880;2023-04-25T13:44:26;0.93;;;0.83;;
16640;SDS011;8434;47.990;7.880;2023-04-25T13:47:11;1.83;;;0.80;;
16640;SDS011;8434;47.990;7.880;2023-04-25T13:49:57;1.73;;;0.70;;
16640;SDS011;8434;47.990;7.880;2023-04-25T13:52:42;1.00;;;0.90;;
16640;SDS011;8434;47.990;7.880;2023-04-25T13:55:28;1.00;;;0.77;;
16640;SDS011;8434;47.990;7.880;2023-04-25T13:58:15;1.33;;;1.10;;
16640;SDS011;8434;47.990;7.880;2023-04-25T14:01:00;1.07;;;0.73;;
16640;SDS011;8434;47.990;7.880;2023-04-25T14:03:47;0.70;;;0.70;;
16640;SDS011;8434;47.990;7.880;2023-04-25T14:06:32;0.60;;;0.60;;
16640;SDS011;8434;47.990;7.880;2023-04-25T14:09:18;0.93;;;0.70;;
16640;SDS011;8434;47.990;7.880;2023-04-25T14:12:05;1.83;;;1.43;;
16640;SDS011;8434;47.990;7.880;2023-04-25T14:14:52;0.60;;;0.60;;
16640;SDS011;8434;47.990;7.880;2023-04-25T14:17:38;1.23;;;0.80;;
16640;SDS011;8434;47.990;7.880;2023-04-25T14:20:23;1.63;;;0.83;;
16640;SDS011;8434;47.990;7.880;2023-04-25T14:23:09;1.13;;;0.90;;
16640;SDS011;8434;47.990;7.880;2023-04-25T14:25:54;0.93;;;0.80;;
16640;SDS011;8434;47.990;7.880;2023-04-25T14:28:40;0.93;;;0.80;;
16640;SDS011;8434;47.990;7.880;2023-04-25T14:31:27;1.63;;;0.90;;
16640;SDS011;8434;47.990;7.880;2023-04-25T14:34:12;0.70;;;0.70;;
16640;SDS011;8434;47.990;7.880;2023-04-25T14:36:58;2.03;;;1.10;;
16640;SDS011;8434;47.990;7.880;2023-04-25T14:39:43;3.13;;;1.10;;
16640;SDS011;8434;47.990;7.880;2023-04-25T14:42:28;1.97;;;1.00;;
16640;SDS011;8434;47.990;7.880;2023-04-25T14:45:14;1.30;;;1.20;;
16640;SDS011;8434;47.990;7.880;2023-04-25T14:48:01;1.20;;;0.87;;
16640;SDS011;8434;47.990;7.880;2023-04-25T14:50:46;1.20;;;1.10;;
16640;SDS011;8434;47.990;7.880;2023-04-25T14:53:32;0.83;;;0.70;;
16640;SDS011;8434;47.990;7.880;2023-04-25T14:56:17;0.80;;;0.80;;
16640;SDS011;8434;47.990;7.880;2023-04-25T14:59:03;0.70;;;0.70;;
16640;SDS011;8434;47.990;7.880;2023-04-25T15:01:48;1.43;;;0.90;;
16640;SDS011;8434;47.990;7.880;2023-04-25T15:04:36;8.03;;;1.17;;
16640;SDS011;8434;47.990;7.880;2023-04-25T15:07:21;0.80;;;0.80;;
16640;SDS011;8434;47.990;7.880;2023-04-25T15:10:07;2.37;;;1.27;;
16640;SDS011;8434;47.990;7.880;2023-04-25T15:12:57;2.10;;;1.17;;
16640;SDS011;8434;47.990;7.880;2023-04-25T15:15:43;2.53;;;1.40;;
16640;SDS011;8434;47.990;7.880;2023-04-25T15:18:29;1.40;;;1.30;;
16640;SDS011;8434;47.990;7.880;2023-04-25T15:21:15;1.20;;;1.10;;
16640;SDS011;8434;47.990;7.880;2023-04-25T15:24:01;2.67;;;1.20;;
16640;SDS011;8434;47.990;7.880;2023-04-25T15:26:46;1.57;;;1.37;;
16640;SDS011;8434;47.990;7.880;2023-04-25T15:29:31;2.60;;;1.40;;
16640;SDS011;8434;47.990;7.880;2023-04-25T15:32:17;2.50;;;1.50;;
16640;SDS011;8434;47.990;7.880;2023-04-25T15:35:03;1.90;;;1.37;;
16640;SDS011;8434;47.990;7.880;2023-04-25T15:37:50;1.60;;;1.50;;
16640;SDS011;8434;47.990;7.880;2023-04-25T15:40:35;2.47;;;1.63;;
16640;SDS011;8434;47.990;7.880;2023-04-25T15:43:21;1.93;;;1.27;;
16640;SDS011;8434;47.990;7.880;2023-04-25T15:46:06;2.27;;;1.37;;
16640;SDS011;8434;47.990;7.880;2023-04-25T15:48:52;2.00;;;1.70;;
16640;SDS011;8434;47.990;7.880;2023-04-25T15:51:37;2.10;;;1.90;;
16640;SDS011;8434;47.990;7.880;2023-04-25T15:54:24;3.53;;;2.13;;
16640;SDS011;8434;47.990;7.880;2023-04-25T15:57:10;3.50;;;2.50;;
16640;SDS011;8434;47.990;7.880;2023-04-25T15:59:56;1.93;;;1.43;;
16640;SDS011;8434;47.990;7.880;2023-04-25T16:02:42;1.90;;;1.40;;
16640;SDS011;8434;47.990;7.880;2023-04-25T16:05:27;2.43;;;1.63;;
16640;SDS011;8434;47.990;7.880;2023-04-25T16:08:13;2.03;;;1.40;;
16640;SDS011;8434;47.990;7.880;2023-04-25T16:11:00;2.07;;;1.27;;
16640;SDS011;8434;47.990;7.880;2023-04-25T16:13:46;4.67;;;1.90;;
16640;SDS011;8434;47.990;7.880;2023-04-25T16:16:31;3.23;;;1.97;;
16640;SDS011;8434;47.990;7.880;2023-04-25T16:19:17;1.57;;;1.30;;
16640;SDS011;8434;47.990;7.880;2023-04-25T16:22:02;1.60;;;1.10;;
16640;SDS011;8434;47.990;7.880;2023-04-25T16:24:48;1.30;;;1.00;;
16640;SDS011;8434;47.990;7.880;2023-04-25T16:27:35;1.37;;;1.07;;
16640;SDS011;8434;47.990;7.880;2023-04-25T16:30:21;1.40;;;1.03;;
16640;SDS011;8434;47.990;7.880;2023-04-25T16:33:07;2.53;;;2.00;;
16640;SDS011;8434;47.990;7.880;2023-04-25T16:35:52;1.60;;;1.40;;
16640;SDS011;8434;47.990;7.880;2023-04-25T16:38:38;1.30;;;1.20;;
16640;SDS011;8434;47.990;7.880;2023-04-25T16:41:23;1.20;;;1.00;;
16640;SDS011;8434;47.990;7.880;2023-04-25T16:44:10;1.20;;;1.10;;
16640;SDS011;8434;47.990;7.880;2023-04-25T16:46:55;1.80;;;1.23;;
16640;SDS011;8434;47.990;7.880;2023-04-25T16:49:41;1.60;;;1.50;;
16640;SDS011;8434;47.990;7.880;2023-04-25T16:52:26;2.27;;;1.10;;
16640;SDS011;8434;47.990;7.880;2023-04-25T16:55:12;1.20;;;1.10;;
16640;SDS011;8434;47.990;7.880;2023-04-25T16:57:58;1.40;;;1.30;;
16640;SDS011;8434;47.990;7.880;2023-04-25T17:00:44;1.63;;;1.23;;
16640;SDS011;8434;47.990;7.880;2023-04-25T17:03:30;3.03;;;1.80;;
16640;SDS011;8434;47.990;7.880;2023-04-25T17:06:16;2.03;;;1.10;;
16640;SDS011;8434;47.990;7.880;2023-04-25T17:09:01;2.37;;;1.40;;
16640;SDS011;8434;47.990;7.880;2023-04-25T17:11:48;1.63;;;1.53;;